Time;durP1;ratioP1;P1;durP2;ratioP2;P2;SDS_P1;SDS_P2;PMS_P1;PMS_P2;Temp;Humidity;BMP_temperature;BMP_pressure;BME280_temperature;BME280_humidity;BME280_pressure;Samples;Min_cycle;Max_cycle;Signal;HPM_P1;HPM_P2
2022/03/23 00:00:00;;;;;;;36.43;22.33;;;;;;;7.70;57.15;102800.41;5297401;28;20031;-72
2022/03/23 00:02:32;;;;;;;30.63;21.43;;;;;;;7.59;57.60;102800.06;5297511;28;20032;-72
2022/03/23 00:05:04;;;;;;;32.20;21.33;;;;;;;7.49;57.63;102799.75;5297439;28;20059;-74
2022/03/23 00:07:35;;;;;;;33.63;21.13;;;;;;;7.42;58.12;102800.41;5295964;28;20040;-73
2022/03/23 00:10:06;;;;;;;31.33;22.10;;;;;;;7.36;58.26;102801.88;5296820;28;20423;-73
2022/03/23 00:12:38;;;;;;;36.10;22.47;;;;;;;7.37;58.79;102811.44;5297560;28;20082;-73
2022/03/23 00:15:10;;;;;;;37.87;21.33;;;;;;;7.25;58.71;102802.41;5297583;28;20414;-75
2022/03/23 00:17:42;;;;;;;35.63;22.48;;;;;;;7.21;59.29;102805.75;5297081;28;20116;-75
2022/03/23 00:20:14;;;;;;;32.23;21.30;;;;;;;7.28;58.66;102804.25;5297316;28;20052;-74
2022/03/23 00:22:45;;;;;;;39.10;21.55;;;;;;;7.12;58.88;102808.91;5295817;28;20032;-76
2022/03/23 00:25:17;;;;;;;32.10;21.30;;;;;;;7.19;58.82;102809.13;5295188;28;20063;-76
2022/03/23 00:27:48;;;;;;;27.03;20.63;;;;;;;7.06;58.69;102802.63;5297293;28;20464;-73
2022/03/23 00:30:20;;;;;;;37.63;23.13;;;;;;;7.06;58.68;102810.41;5297161;28;20031;-75
2022/03/23 00:32:51;;;;;;;33.53;21.23;;;;;;;6.96;59.10;102806.63;5297080;28;20189;-75
2022/03/23 00:35:23;;;;;;;36.67;20.90;;;;;;;6.90;59.90;102811.59;5297398;28;20177;-76
2022/03/23 00:37:55;;;;;;;33.57;22.03;;;;;;;6.85;59.34;102808.84;5297303;28;20028;-73
2022/03/23 00:40:30;;;;;;;35.55;22.13;;;;;;;6.69;59.51;102802.22;5296935;28;20266;-73
2022/03/23 00:43:02;;;;;;;33.13;21.55;;;;;;;6.70;60.16;102805.72;5296865;28;20028;-74
2022/03/23 00:45:33;;;;;;;31.60;21.37;;;;;;;6.55;60.37;102804.34;5296761;28;20043;-74
2022/03/23 00:48:05;;;;;;;39.43;22.67;;;;;;;6.50;60.78;102808.44;5296875;28;20495;-73
2022/03/23 00:50:36;;;;;;;34.22;22.95;;;;;;;6.45;60.71;102802.22;5297092;28;20028;-74
2022/03/23 00:53:08;;;;;;;40.87;24.77;;;;;;;6.36;61.37;102807.09;5297036;28;20491;-73
2022/03/23 00:55:40;;;;;;;38.23;22.37;;;;;;;6.33;61.76;102806.97;5296830;28;20529;-74
2022/03/23 00:58:12;;;;;;;31.33;22.13;;;;;;;6.15;61.78;102799.38;5296605;28;20128;-74
2022/03/23 01:00:45;;;;;;;31.37;22.00;;;;;;;6.27;61.42;102798.97;5296646;28;20085;-73
2022/03/23 01:03:16;;;;;;;31.98;22.50;;;;;;;6.05;61.75;102798.13;5296798;28;20039;-74
2022/03/23 01:05:50;;;;;;;35.43;22.87;;;;;;;6.06;62.39;102793.84;5296865;28;20032;-75
2022/03/23 01:08:21;;;;;;;37.50;21.00;;;;;;;6.05;61.98;102795.53;5299943;28;20031;-74
2022/03/23 01:10:53;;;;;;;38.00;22.47;;;;;;;6.03;62.76;102792.91;5300857;28;20491;-75
2022/03/23 01:13:24;;;;;;;30.47;20.87;;;;;;;5.95;63.07;102798.59;5300679;28;20024;-74
2022/03/23 01:15:56;;;;;;;39.07;22.30;;;;;;;5.82;62.43;102798.09;5300465;28;20031;-74
2022/03/23 01:18:27;;;;;;;33.37;21.93;;;;;;;5.75;62.95;102796.09;5300532;28;20463;-75
2022/03/23 01:21:00;;;;;;;34.07;23.63;;;;;;;5.65;63.38;102793.94;5300690;28;20180;-73
2022/03/23 01:23:32;;;;;;;35.75;24.17;;;;;;;5.61;63.64;102797.25;5300313;28;20043;-72
2022/03/23 01:26:04;;;;;;;43.77;23.70;;;;;;;5.63;63.65;102795.59;5300232;28;20495;-72
2022/03/23 01:28:35;;;;;;;33.03;22.53;;;;;;;5.58;63.73;102792.84;5298891;28;20285;-73
2022/03/23 01:31:08;;;;;;;33.77;22.37;;;;;;;5.65;63.41;102783.59;5300458;28;20024;-74
2022/03/23 01:33:39;;;;;;;28.73;21.48;;;;;;;5.69;63.68;102782.03;5300374;28;20495;-74
2022/03/23 01:36:11;;;;;;;37.53;23.17;;;;;;;5.62;64.13;102789.56;5300258;28;20039;-74
2022/03/23 01:38:42;;;;;;;39.57;24.03;;;;;;;5.57;64.35;102785.00;5300272;28;20089;-74
2022/03/23 01:41:13;;;;;;;38.87;24.20;;;;;;;5.56;64.47;102784.13;5300402;28;20051;-74
2022/03/23 01:43:45;;;;;;;38.27;24.03;;;;;;;5.55;64.02;102782.34;5299733;28;20134;-74
2022/03/23 01:46:19;;;;;;;39.75;24.65;;;;;;;5.51;64.52;102780.50;5299891;28;20032;-74
2022/03/23 01:48:51;;;;;;;40.00;22.77;;;;;;;5.42;65.26;102777.53;5299977;28;20032;-74
2022/03/23 01:51:23;;;;;;;37.50;24.90;;;;;;;5.43;64.89;102779.28;5299847;28;20831;-74
2022/03/23 01:53:55;;;;;;;36.03;24.13;;;;;;;5.53;64.25;102780.56;5299663;28;20050;-74
2022/03/23 01:56:26;;;;;;;34.00;24.47;;;;;;;5.32;65.09;102776.25;5300000;28;20028;-74
2022/03/23 01:58:57;;;;;;;42.03;26.93;;;;;;;5.27;63.96;102773.50;5299425;28;20085;-74
2022/03/23 02:01:29;;;;;;;35.60;24.37;;;;;;;5.28;65.19;102779.53;5299627;28;20027;-74
2022/03/23 02:04:00;;;;;;;37.40;24.37;;;;;;;5.26;65.78;102774.31;5300054;28;20024;-75
2022/03/23 02:06:32;;;;;;;39.70;24.20;;;;;;;5.19;65.65;102768.84;5299615;28;20032;-74
2022/03/23 02:09:03;;;;;;;42.17;25.83;;;;;;;5.13;65.86;102772.03;5299419;28;20043;-74
2022/03/23 02:11:35;;;;;;;36.10;24.63;;;;;;;5.05;66.46;102776.88;5299492;28;20617;-74
2022/03/23 02:14:06;;;;;;;35.23;24.47;;;;;;;5.05;66.58;102768.25;5299218;28;20620;-74
2022/03/23 02:16:39;;;;;;;38.57;25.80;;;;;;;4.89;66.30;102777.06;5299548;28;20524;-75
2022/03/23 02:19:11;;;;;;;38.10;24.95;;;;;;;4.94;67.02;102772.97;5299253;28;20024;-74
2022/03/23 02:21:44;;;;;;;41.03;24.63;;;;;;;4.84;66.73;102770.81;5299181;28;20024;-74
2022/03/23 02:24:16;;;;;;;;;;;;;;;4.94;63.94;102772.97;5299596;28;20036;-74
2022/03/23 02:26:48;;;;;;;41.22;24.88;;;;;;;4.82;66.67;102772.47;5298993;28;20442;-74
2022/03/23 02:29:22;;;;;;;35.90;25.77;;;;;;;4.78;67.12;102775.72;5299438;28;20483;-73
2022/03/23 02:31:53;;;;;;;35.75;24.63;;;;;;;4.77;67.07;102776.53;5299286;28;20024;-74
2022/03/23 02:34:27;;;;;;;44.23;25.10;;;;;;;4.74;67.51;102773.00;5299282;28;20172;-74
2022/03/23 02:36:59;;;;;;;36.25;23.27;;;;;;;4.70;66.56;102771.09;5298955;28;20039;-73
2022/03/23 02:39:30;;;;;;;37.33;25.50;;;;;;;4.66;67.25;102768.31;5299164;28;20056;-74
2022/03/23 02:42:02;;;;;;;36.27;26.43;;;;;;;4.65;67.79;102770.00;5297668;28;20621;-75
2022/03/23 02:44:34;;;;;;;36.93;25.50;;;;;;;4.57;67.64;102773.94;5298757;28;20424;-74
2022/03/23 02:47:05;;;;;;;34.67;25.17;;;;;;;4.55;66.95;102773.00;5298803;28;20063;-73
2022/03/23 02:49:37;;;;;;;40.70;24.73;;;;;;;4.49;68.00;102765.91;5299275;28;20032;-74
2022/03/23 02:52:08;;;;;;;36.20;25.70;;;;;;;4.45;68.23;102770.84;5298953;28;20102;-74
2022/03/23 03:03:39;;;;;;;49.78;26.40;;;;;;;4.15;69.20;102768.63;5298618;28;20039;-75
2022/03/23 03:06:10;;;;;;;41.37;25.93;;;;;;;4.11;69.44;102772.78;5298666;28;20028;-74
2022/03/23 03:08:44;;;;;;;36.33;25.77;;;;;;;4.08;69.78;102769.19;5297317;28;20036;-75
2022/03/23 03:11:18;;;;;;;37.83;26.88;;;;;;;3.98;69.97;102778.22;5298604;28;20024;-72
2022/03/23 03:13:51;;;;;;;50.95;26.60;;;;;;;3.98;69.93;102768.75;5298587;28;20383;-72
2022/03/23 03:16:22;;;;;;;37.20;26.17;;;;;;;3.94;70.39;102768.53;5298107;28;20071;-74
2022/03/23 03:18:54;;;;;;;45.33;27.57;;;;;;;3.95;70.32;102768.63;5298253;28;20028;-74
2022/03/23 03:21:25;;;;;;;44.47;29.63;;;;;;;3.90;70.55;102772.69;5298166;28;20102;-74
2022/03/23 03:23:56;;;;;;;42.80;27.57;;;;;;;3.80;70.22;102775.63;5298335;28;20024;-73
2022/03/23 03:26:30;;;;;;;45.60;27.17;;;;;;;3.77;70.71;102776.38;5297735;28;20458;-74
2022/03/23 03:29:04;;;;;;;37.47;26.48;;;;;;;3.66;71.17;102790.47;5297650;28;20028;-74
2022/03/23 03:31:35;;;;;;;38.47;26.55;;;;;;;3.63;71.34;102782.59;5297413;28;20054;-73
2022/03/23 03:34:08;;;;;;;44.10;27.10;;;;;;;3.53;71.32;102783.84;5298158;28;20107;-73
2022/03/23 03:36:41;;;;;;;36.08;27.13;;;;;;;3.46;71.41;102789.50;5298017;28;20024;-73
2022/03/23 03:39:12;;;;;;;;;;;;;;;3.53;68.99;102789.00;5298275;28;20036;-71
2022/03/23 03:41:43;;;;;;;39.38;27.73;;;;;;;3.36;71.26;102787.28;5297809;28;19912;-73
2022/03/23 03:44:15;;;;;;;45.60;29.27;;;;;;;3.40;72.08;102781.47;5297335;28;20484;-74
2022/03/23 03:46:46;;;;;;;38.37;27.13;;;;;;;3.28;72.38;102790.38;5296597;28;20460;-72
2022/03/23 03:49:18;;;;;;;46.90;28.10;;;;;;;3.24;72.66;102780.72;5297348;28;20392;-73
2022/03/23 03:51:49;;;;;;;41.10;27.57;;;;;;;3.23;72.87;102791.81;5297693;28;20032;-72
2022/03/23 03:54:21;;;;;;;46.00;28.80;;;;;;;3.07;73.14;102785.00;5297500;28;20586;-74
2022/03/23 03:56:52;;;;;;;40.57;28.13;;;;;;;3.07;73.33;102789.28;5295770;28;20092;-73
2022/03/23 03:59:23;;;;;;;37.83;27.83;;;;;;;3.10;73.43;102794.59;5297321;28;20052;-74
2022/03/23 04:01:55;;;;;;;44.77;28.43;;;;;;;3.17;73.11;102786.38;5297523;28;20028;-74
2022/03/23 04:04:26;;;;;;;45.80;30.60;;;;;;;3.17;73.35;102785.47;5297147;28;20111;-74
2022/03/23 04:06:58;;;;;;;38.80;28.20;;;;;;;3.13;73.66;102788.72;5297604;28;20028;-73
2022/03/23 04:09:29;;;;;;;45.33;30.03;;;;;;;3.10;73.70;102789.44;5297388;28;20028;-74
2022/03/23 04:12:00;;;;;;;44.73;29.33;;;;;;;3.12;74.02;102789.53;5297464;28;20028;-74
2022/03/23 04:14:32;;;;;;;43.30;29.83;;;;;;;3.14;74.04;102790.47;5297451;28;20047;-75
2022/03/23 04:17:03;;;;;;;50.33;28.10;;;;;;;3.08;73.98;102784.22;5297177;28;20082;-73
2022/03/23 04:19:35;;;;;;;46.87;28.47;;;;;;;3.12;73.86;102789.53;5296962;28;20031;-73
2022/03/23 04:22:06;;;;;;;50.23;30.07;;;;;;;3.10;73.70;102786.88;5297160;28;20024;-73
2022/03/23 04:24:37;;;;;;;43.33;27.50;;;;;;;3.13;73.48;102789.59;5297055;28;20542;-72
2022/03/23 04:27:09;;;;;;;44.77;30.07;;;;;;;3.21;73.62;102787.41;5297087;28;20036;-73
2022/03/23 04:29:40;;;;;;;43.70;28.90;;;;;;;3.21;74.11;102788.28;5296658;28;20082;-74
2022/03/23 04:32:11;;;;;;;42.30;29.10;;;;;;;3.11;73.88;102788.66;5297240;28;20071;-73
2022/03/23 04:34:43;;;;;;;39.87;28.17;;;;;;;3.15;73.75;102787.97;5296644;28;20032;-73
2022/03/23 04:37:14;;;;;;;39.40;28.43;;;;;;;3.04;74.25;102789.13;5295807;28;20035;-75
2022/03/23 04:39:45;;;;;;;43.93;29.10;;;;;;;3.07;74.48;102792.75;5296986;28;20107;-74
2022/03/23 04:42:17;;;;;;;42.13;30.37;;;;;;;2.99;74.85;102793.19;5300593;28;20067;-73
2022/03/23 04:44:48;;;;;;;45.20;28.33;;;;;;;3.01;74.02;102794.13;5301348;28;20020;-74
2022/03/23 04:47:20;;;;;;;42.53;29.00;;;;;;;3.05;74.90;102796.94;5301013;28;20031;-74
2022/03/23 04:49:51;;;;;;;38.40;26.83;;;;;;;2.93;74.91;102804.06;5301063;28;20099;-76
2022/03/23 04:52:23;;;;;;;43.00;30.07;;;;;;;2.89;75.01;102792.69;5301482;28;20469;-74
2022/03/23 04:54:56;;;;;;;46.73;29.40;;;;;;;2.88;74.86;102798.69;5301043;28;20031;-75
2022/03/23 04:57:28;;;;;;;45.58;28.17;;;;;;;2.90;75.58;102799.63;5300765;28;20036;-75
2022/03/23 04:59:59;;;;;;;41.20;27.43;;;;;;;2.94;74.91;102812.69;5301059;28;20451;-75
2022/03/23 05:02:30;;;;;;;43.00;29.03;;;;;;;2.92;74.57;102816.03;5300993;28;20918;-74
2022/03/23 05:05:03;;;;;;;41.77;28.97;;;;;;;2.95;74.59;102817.00;5300415;28;20036;-74
2022/03/23 05:07:35;;;;;;;43.13;28.33;;;;;;;2.92;74.81;102823.78;5300755;28;20020;-74
2022/03/23 05:10:08;;;;;;;44.67;28.52;;;;;;;2.92;74.76;102816.03;5300718;28;20046;-74
2022/03/23 05:12:41;;;;;;;41.85;27.70;;;;;;;2.85;74.99;102819.13;5300510;28;20068;-75
2022/03/23 05:15:14;;;;;;;43.45;28.13;;;;;;;2.80;74.22;102819.69;5301222;28;20023;-76
2022/03/23 05:17:46;;;;;;;42.30;29.17;;;;;;;2.79;75.08;102823.09;5300724;28;20020;-75
2022/03/23 05:20:18;;;;;;;43.27;29.00;;;;;;;2.72;75.14;102825.34;5300372;28;20016;-76
2022/03/23 05:22:49;;;;;;;41.27;28.37;;;;;;;2.71;75.87;102820.97;5298564;28;20047;-75
2022/03/23 05:25:21;;;;;;;41.37;27.53;;;;;;;2.60;75.24;102816.09;5300100;28;20040;-76
2022/03/23 05:27:52;;;;;;;43.93;28.23;;;;;;;2.62;76.16;102819.63;5300808;28;20073;-77
2022/03/23 05:30:24;;;;;;;36.23;27.27;;;;;;;2.50;75.93;102820.75;5300520;28;20025;-74
2022/03/23 05:32:55;;;;;;;42.20;27.50;;;;;;;2.54;75.42;102825.25;5300237;28;20065;-75
2022/03/23 05:35:27;;;;;;;41.60;28.60;;;;;;;2.58;76.28;102830.53;5298157;28;20032;-76
2022/03/23 05:37:59;;;;;;;45.45;27.98;;;;;;;2.51;76.02;102830.25;5300341;28;20063;-74
2022/03/23 05:40:30;;;;;;;48.07;29.13;;;;;;;2.57;76.51;102833.94;5299805;28;20054;-73
2022/03/23 05:43:02;;;;;;;45.17;28.47;;;;;;;2.51;76.29;102827.66;5300027;28;20376;-74
2022/03/23 05:45:35;;;;;;;37.87;27.43;;;;;;;2.51;76.73;102826.75;5299751;28;20062;-75
2022/03/23 05:48:06;;;;;;;46.25;28.25;;;;;;;2.50;76.77;102833.59;5299817;28;20028;-74
2022/03/23 05:50:38;;;;;;;42.40;28.93;;;;;;;2.52;77.37;102831.13;5299749;28;20020;-74
2022/03/23 05:53:10;;;;;;;44.37;29.73;;;;;;;2.49;77.47;102829.25;5298674;28;20024;-74
2022/03/23 05:55:41;;;;;;;38.67;30.40;;;;;;;2.49;77.41;102836.97;5299302;28;20024;-75
2022/03/23 05:58:12;;;;;;;49.33;30.80;;;;;;;2.49;77.33;102836.97;5299633;28;20937;-76
2022/03/23 06:00:44;;;;;;;47.37;29.37;;;;;;;2.49;77.67;102834.41;5298071;28;20024;-76
2022/03/23 06:03:15;;;;;;;50.67;32.23;;;;;;;2.57;77.40;102839.97;5299496;28;20032;-75
2022/03/23 06:05:47;;;;;;;49.33;31.53;;;;;;;2.60;77.74;102839.25;5299219;28;20436;-75
2022/03/23 06:08:18;;;;;;;52.57;31.63;;;;;;;2.63;77.32;102839.41;5299016;28;20029;-75
2022/03/23 06:10:49;;;;;;;49.53;30.50;;;;;;;2.61;77.37;102849.63;5299352;28;20026;-75
2022/03/23 06:13:21;;;;;;;49.00;30.27;;;;;;;2.60;77.92;102846.97;5299741;28;20542;-73
2022/03/23 06:15:52;;;;;;;46.27;29.90;;;;;;;2.59;78.18;102851.22;5299340;28;20032;-75
2022/03/23 06:18:23;;;;;;;45.03;29.80;;;;;;;2.65;77.87;102845.53;5299445;28;20442;-74
2022/03/23 06:20:55;;;;;;;42.00;28.73;;;;;;;2.66;77.87;102848.19;5299234;28;20042;-76
2022/03/23 06:23:26;;;;;;;45.33;29.73;;;;;;;2.73;77.90;102847.69;5298942;28;20031;-74
2022/03/23 06:25:58;;;;;;;45.53;30.80;;;;;;;2.76;78.04;102851.25;5298751;28;20084;-74
2022/03/23 06:28:29;;;;;;;45.07;30.67;;;;;;;2.82;77.81;102849.88;5299015;28;20047;-74
2022/03/23 06:31:01;;;;;;;45.83;30.43;;;;;;;2.84;78.14;102850.84;5298898;28;20451;-75
2022/03/23 06:33:32;;;;;;;40.83;29.48;;;;;;;2.94;77.74;102851.31;5298741;28;20046;-75
2022/03/23 06:36:04;;;;;;;49.07;30.77;;;;;;;3.00;77.67;102857.66;5298457;28;20494;-76
2022/03/23 06:38:36;;;;;;;43.37;30.77;;;;;;;3.03;77.75;102851.81;5298187;28;20024;-75
2022/03/23 06:41:10;;;;;;;42.27;29.80;;;;;;;3.10;77.51;102857.31;5298809;28;20375;-75
2022/03/23 06:43:41;;;;;;;50.00;30.02;;;;;;;3.17;77.65;102862.78;5298614;28;20040;-75
2022/03/23 06:46:13;;;;;;;51.10;33.73;;;;;;;3.33;77.51;102857.59;5297289;28;20038;-75
2022/03/23 06:48:46;;;;;;;44.70;31.43;;;;;;;3.44;77.09;102873.63;5298269;28;20024;-77
2022/03/23 06:51:18;;;;;;;52.13;32.97;;;;;;;3.55;77.16;102874.16;5298284;28;20429;-76
2022/03/23 06:53:49;;;;;;;46.50;32.73;;;;;;;3.70;76.75;102871.44;5296877;28;20508;-76
2022/03/23 06:56:21;;;;;;;57.87;31.57;;;;;;;3.77;76.08;102879.56;5298380;28;20028;-76
2022/03/23 06:58:52;;;;;;;42.77;28.77;;;;;;;3.89;75.14;102873.25;5298859;28;20498;-74
2022/03/23 07:01:23;;;;;;;44.20;29.93;;;;;;;4.03;74.46;102877.38;5298176;28;20047;-74
2022/03/23 07:03:55;;;;;;;44.23;30.90;;;;;;;4.22;73.81;102879.13;5297360;28;20031;-75
2022/03/23 07:06:26;;;;;;;49.27;29.90;;;;;;;4.37;73.20;102869.50;5297685;28;20040;-75
2022/03/23 07:11:48;;;;;;;46.80;30.63;;;;;;;4.81;71.53;102874.91;5298255;28;20059;-74
2022/03/23 07:14:19;;;;;;;46.37;29.40;;;;;;;5.00;70.71;102879.19;5298358;28;20405;-74
2022/03/23 07:16:50;;;;;;;38.07;28.97;;;;;;;5.17;69.97;102882.53;5297619;28;20035;-74
2022/03/23 07:19:22;;;;;;;42.27;30.60;;;;;;;5.36;68.98;102879.03;5297988;28;20040;-75
2022/03/23 07:21:54;;;;;;;40.70;29.00;;;;;;;5.54;67.91;102888.34;5298318;28;20435;-75
2022/03/23 07:24:26;;;;;;;47.43;29.70;;;;;;;5.68;66.84;102889.81;5297523;28;20086;-77
2022/03/23 07:26:59;;;;;;;41.17;28.70;;;;;;;5.83;66.28;102879.22;5297605;28;20036;-74
2022/03/23 07:29:31;;;;;;;41.08;29.42;;;;;;;5.99;65.19;102880.78;5297717;28;20832;-74
2022/03/23 07:32:03;;;;;;;46.08;30.10;;;;;;;6.13;65.11;102889.06;5297618;28;20376;-74
2022/03/23 07:34:35;;;;;;;38.63;28.52;;;;;;;6.24;64.58;102887.78;5297862;28;20039;-75
2022/03/23 07:37:06;;;;;;;43.00;28.73;;;;;;;6.42;63.72;102887.59;5297893;28;20027;-76
2022/03/23 07:39:38;;;;;;;40.10;27.70;;;;;;;6.56;63.50;102885.53;5297057;28;20487;-75
2022/03/23 07:42:09;;;;;;;45.97;30.57;;;;;;;6.72;62.37;102887.00;5297255;28;20031;-76
2022/03/23 07:44:41;;;;;;;40.20;28.10;;;;;;;6.92;62.08;102888.59;5297335;28;20035;-76
2022/03/23 07:47:12;;;;;;;41.70;29.87;;;;;;;7.05;61.73;102887.34;5297988;28;20424;-74
2022/03/23 07:49:44;;;;;;;43.30;28.50;;;;;;;7.23;62.05;102892.28;5297356;28;20024;-75
2022/03/23 07:52:15;;;;;;;44.70;29.20;;;;;;;7.41;60.81;102898.94;5296788;28;20278;-76
2022/03/23 07:54:47;;;;;;;39.80;28.13;;;;;;;7.55;60.45;102905.50;5297416;28;20046;-75
2022/03/23 07:57:18;;;;;;;42.33;28.97;;;;;;;7.74;59.38;102909.56;5296917;28;20036;-76
2022/03/23 07:59:50;;;;;;;37.07;28.93;;;;;;;7.85;59.61;102908.19;5296743;28;20561;-75
2022/03/23 08:02:24;;;;;;;48.57;30.47;;;;;;;7.99;58.58;102906.06;5297067;28;20063;-76
2022/03/23 08:04:55;;;;;;;41.85;28.70;;;;;;;8.16;57.84;102906.59;5296858;28;20420;-75
2022/03/23 08:07:26;;;;;;;43.60;28.20;;;;;;;8.37;57.92;102913.28;5295993;28;20028;-76
2022/03/23 08:09:57;;;;;;;44.90;28.33;;;;;;;8.49;57.12;102902.41;5296805;28;20024;-76
2022/03/23 08:12:29;;;;;;;44.57;28.30;;;;;;;8.60;56.73;102913.09;5296458;28;20028;-76
2022/03/23 08:15:00;;;;;;;47.40;30.70;;;;;;;8.81;56.52;102905.09;5296887;28;20027;-76
2022/03/23 08:17:31;;;;;;;46.37;32.23;;;;;;;8.97;56.18;102901.16;5296639;28;20055;-76
2022/03/23 08:22:54;;;;;;;45.72;29.35;;;;;;;9.26;52.69;102909.78;5297295;28;20122;-75
2022/03/23 08:25:26;;;;;;;39.63;29.35;;;;;;;9.49;51.78;102905.19;5296253;28;20028;-75
2022/03/23 08:27:59;;;;;;;61.42;30.35;;;;;;;9.66;50.64;102905.63;5296136;28;20048;-75
2022/03/23 08:30:30;;;;;;;37.70;28.13;;;;;;;9.82;49.81;102904.25;5296702;28;20062;-75
2022/03/23 08:33:02;;;;;;;36.27;26.93;;;;;;;10.00;49.26;102909.91;5296886;28;20032;-75
2022/03/23 08:35:34;;;;;;;46.28;28.25;;;;;;;10.25;49.07;102907.00;5297060;28;20256;-74
2022/03/23 08:38:06;;;;;;;41.90;27.67;;;;;;;10.38;47.82;102912.56;5296635;28;20031;-74
2022/03/23 08:40:38;;;;;;;40.90;29.90;;;;;;;10.70;48.87;102901.91;5296595;28;20035;-75
2022/03/23 08:43:09;;;;;;;39.33;27.60;;;;;;;10.70;47.07;102903.66;5296659;28;20028;-76
2022/03/23 08:45:41;;;;;;;36.10;28.50;;;;;;;10.93;48.20;102905.00;5296853;28;20119;-77
2022/03/23 08:48:12;;;;;;;42.13;28.20;;;;;;;11.13;47.06;102905.38;5296427;28;20139;-76
2022/03/23 08:50:47;;;;;;;42.60;27.70;;;;;;;11.41;47.27;102910.22;5296472;28;20051;-76
2022/03/23 08:53:19;;;;;;;36.70;28.35;;;;;;;11.61;46.75;102911.47;5296598;28;20123;-76
2022/03/23 08:55:50;;;;;;;42.42;28.40;;;;;;;11.85;46.42;102915.34;5296603;28;20099;-76
2022/03/23 08:58:21;;;;;;;36.97;27.50;;;;;;;12.44;44.27;102909.25;5296490;28;20070;-76
2022/03/23 09:00:53;;;;;;;42.63;28.00;;;;;;;13.11;42.81;102913.56;5296480;28;20085;-76
2022/03/23 09:03:24;;;;;;;35.80;27.40;;;;;;;13.85;43.04;102909.03;5296232;28;20068;-76
2022/03/23 09:05:55;;;;;;;41.43;30.37;;;;;;;14.11;43.49;102905.72;5296491;28;20189;-75
2022/03/23 09:08:27;;;;;;;41.27;29.70;;;;;;;14.31;43.00;102916.31;5296326;28;20620;-76
2022/03/23 09:10:59;;;;;;;44.90;30.33;;;;;;;14.53;43.57;102906.81;5295006;28;20538;-77
2022/03/23 09:13:30;;;;;;;43.45;30.33;;;;;;;14.94;42.75;102904.38;5296086;28;20027;-76
2022/03/23 09:16:02;;;;;;;40.53;29.53;;;;;;;15.25;41.38;102906.19;5296614;28;20064;-76
2022/03/23 09:18:33;;;;;;;48.80;29.40;;;;;;;15.91;39.61;102905.38;5295404;28;20488;-76
2022/03/23 09:21:05;;;;;;;40.47;29.53;;;;;;;16.52;39.51;102899.09;5296524;28;20028;-76
2022/03/23 09:23:36;;;;;;;36.47;29.87;;;;;;;16.85;40.07;102908.59;5294748;28;20100;-76
2022/03/23 09:26:10;;;;;;;38.22;28.15;;;;;;;17.21;36.66;102911.03;5296464;28;20101;-77
2022/03/23 09:28:41;;;;;;;38.35;29.80;;;;;;;17.47;38.35;102895.91;5298266;28;20036;-76
2022/03/23 09:31:12;;;;;;;41.00;28.03;;;;;;;17.79;36.09;102904.41;5299898;28;20115;-76
2022/03/23 09:33:48;;;;;;;38.40;28.53;;;;;;;17.53;35.30;102907.28;5300159;28;20032;-77
2022/03/23 09:39:09;;;;;;;29.50;22.13;;;;;;;18.17;28.34;102909.34;5300228;28;20036;-76
2022/03/23 09:41:44;;;;;;;30.27;24.52;;;;;;;18.52;27.09;102900.16;5300013;28;20046;-75
2022/03/23 09:44:16;;;;;;;29.55;23.42;;;;;;;19.03;27.31;102902.16;5300164;28;20023;-76
2022/03/23 09:46:47;;;;;;;29.27;23.65;;;;;;;19.61;26.11;102905.66;5299898;28;20063;-77
2022/03/23 09:49:19;;;;;;;26.47;23.60;;;;;;;19.76;25.32;102906.31;5300692;28;20067;-77
2022/03/23 09:51:53;;;;;;;34.07;23.90;;;;;;;20.42;25.26;102905.06;5300076;28;20387;-76
2022/03/23 09:54:25;;;;;;;28.25;24.02;;;;;;;20.57;24.91;102904.72;5300337;28;20585;-75
2022/03/23 09:56:56;;;;;;;32.23;24.33;;;;;;;20.49;23.97;102901.34;5299977;28;20028;-75
2022/03/23 09:59:28;;;;;;;31.30;23.25;;;;;;;21.08;25.67;102903.63;5300496;28;20497;-76
2022/03/23 10:02:02;;;;;;;31.70;24.33;;;;;;;20.92;23.31;102904.91;5299696;28;20024;-76
2022/03/23 10:05:11;;;;;;;28.73;23.63;;;;;;;21.65;24.28;102906.69;5299600;28;20032;-77
2022/03/23 10:08:07;;;;;;;30.58;25.60;;;;;;;21.28;25.25;102905.81;5299897;28;20391;-77
2022/03/23 10:11:13;;;;;;;28.92;24.65;;;;;;;22.12;24.90;102917.84;5299751;28;20607;-77
2022/03/23 10:14:32;;;;;;;31.38;26.08;;;;;;;22.90;23.69;102913.84;5298562;28;20141;-77
2022/03/23 10:17:40;;;;;;;30.52;24.90;;;;;;;22.68;23.04;102914.50;5234076;28;20091;-76
2022/03/23 10:20:14;;;;;;;31.63;23.90;;;;;;;22.74;21.83;102916.09;5233938;28;20088;-76
2022/03/23 10:22:47;;;;;;;27.55;24.45;;;;;;;22.97;21.63;102919.84;5234436;28;20596;-77
2022/03/23 10:25:23;;;;;;;30.92;25.83;;;;;;;23.26;21.83;102917.13;5233899;28;20551;-75
2022/03/23 10:27:55;;;;;;;26.83;24.13;;;;;;;23.39;20.72;102922.06;5233907;28;20080;-75
2022/03/23 10:30:36;;;;;;;;;;;;;;;24.64;22.02;102918.56;5234678;28;20234;-76
2022/03/23 10:33:19;;;;;;;27.63;23.63;;;;;;;23.69;22.86;102909.53;5233673;28;19940;-77
2022/03/23 10:35:51;;;;;;;31.90;24.08;;;;;;;24.09;20.79;102913.47;5234014;28;20037;-76
2022/03/23 10:38:24;;;;;;;28.65;25.70;;;;;;;24.81;20.73;102901.03;5233463;28;20036;-76
2022/03/23 10:40:56;;;;;;;32.20;24.58;;;;;;;25.29;19.83;102900.00;5233774;28;20447;-75
2022/03/23 10:43:37;;;;;;;28.17;23.23;;;;;;;25.58;20.31;102898.78;5234063;28;20097;-75
2022/03/23 10:46:10;;;;;;;27.25;24.17;;;;;;;25.49;19.58;102896.50;5233552;28;20037;-75
2022/03/23 10:48:54;;;;;;;28.77;23.77;;;;;;;25.85;19.73;102893.16;5233044;28;20052;-75
2022/03/23 10:51:34;;;;;;;27.50;23.60;;;;;;;25.83;18.85;102892.38;5242502;28;20593;-76
2022/03/23 10:54:18;;;;;;;31.65;23.60;;;;;;;26.12;18.04;102893.78;5298904;28;20049;-76
2022/03/23 10:56:49;;;;;;;30.85;24.15;;;;;;;26.19;18.10;102892.56;5298714;28;20103;-77
2022/03/23 10:59:25;;;;;;;25.33;22.63;;;;;;;26.31;16.86;102893.81;5298824;28;20112;-77
2022/03/23 11:02:08;;;;;;;28.27;23.75;;;;;;;25.60;19.20;102894.25;5298695;28;20387;-77
2022/03/23 11:04:49;;;;;;;25.92;23.15;;;;;;;26.72;17.71;102890.13;5298431;28;20031;-77
2022/03/23 11:07:29;;;;;;;27.58;23.20;;;;;;;27.32;16.05;102894.38;5298221;28;20491;-77
2022/03/23 11:15:49;;;;;;;27.90;22.95;;;;;;;28.25;15.68;102888.63;5298518;28;20040;-77
2022/03/23 11:18:20;;;;;;;26.60;23.83;;;;;;;27.89;15.84;102886.09;5298118;28;20498;-76
2022/03/23 11:20:53;;;;;;;;;;;;;;;30.02;15.90;102890.94;5299003;28;20044;-77
2022/03/23 11:23:30;;;;;;;25.95;23.15;;;;;;;28.82;14.49;102882.81;5298150;28;20229;-76
2022/03/23 11:26:07;;;;;;;28.60;23.70;;;;;;;28.83;15.24;102875.59;5297964;28;20095;-75
2022/03/23 11:28:42;;;;;;;24.90;22.20;;;;;;;28.33;15.07;102874.78;5297613;28;20040;-76
2022/03/23 11:31:18;;;;;;;24.90;22.10;;;;;;;28.82;14.48;102879.22;5298094;28;20035;-76
2022/03/23 11:33:51;;;;;;;23.02;20.58;;;;;;;28.69;15.61;102871.91;5297732;28;20547;-76
2022/03/23 11:36:27;;;;;;;22.05;19.70;;;;;;;29.15;14.22;102873.72;5297748;28;20044;-76
2022/03/23 11:39:00;;;;;;;25.33;22.88;;;;;;;29.58;13.88;102883.75;5297626;28;20456;-76
2022/03/23 11:41:33;;;;;;;27.48;21.52;;;;;;;29.70;12.99;102874.94;5297810;28;20028;-76
2022/03/23 11:44:04;;;;;;;26.13;22.77;;;;;;;30.06;12.96;102868.28;5297727;28;20027;-75
2022/03/23 11:46:36;;;;;;;25.95;23.40;;;;;;;30.62;13.21;102867.44;5297981;28;20038;-79
2022/03/23 11:49:07;;;;;;;;;;;;;;;32.13;12.82;102870.66;5298083;28;20064;-75
2022/03/23 11:51:57;;;;;;;32.03;22.50;;;;;;;30.78;13.03;102861.91;5297185;28;19923;-76
2022/03/23 11:58:00;;;;;;;27.05;23.70;;;;;;;31.44;13.06;102863.72;5297743;28;20048;-77
2022/03/23 12:00:41;;;;;;;27.58;24.85;;;;;;;31.25;13.49;102861.44;5297466;28;20460;-76
2022/03/23 12:03:12;;;;;;;24.38;21.85;;;;;;;31.07;11.37;102857.28;5297390;28;20043;-77
2022/03/23 12:05:53;;;;;;;25.30;22.63;;;;;;;31.08;12.42;102854.47;5297414;28;20028;-77
2022/03/23 12:08:46;;;;;;;24.67;22.25;;;;;;;32.46;11.91;102842.16;5297140;28;20418;-76